Time;durP1;ratioP1;P1;durP2;ratioP2;P2;SDS_P1;SDS_P2;PMS_P1;PMS_P2;Temp;Humidity;BMP_temperature;BMP_pressure;BME280_temperature;BME280_humidity;BME280_pressure;Samples;Min_cycle;Max_cycle;Signal;HPM_P1;HPM_P2
2023/08/08 00:00:16;;;;;;;3.80;2.53;;;16.60;99.90;;;;;;4589969;19;20010;-25
2023/08/08 00:02:08;;;;;;;5.55;2.67;;;16.60;99.90;;;;;;4590451;19;20010;-25
2023/08/08 00:03:40;;;;;;;4.55;1.77;;;16.50;99.90;;;;;;4590835;19;20525;-24
2023/08/08 00:52:19;;;;;;;5.47;2.72;;;16.30;99.90;;;;;;4590323;19;20011;-25
2023/08/08 00:53:53;;;;;;;3.40;1.90;;;16.20;99.90;;;;;;4589026;19;20010;-25
2023/08/08 00:55:25;;;;;;;4.50;2.03;;;16.20;99.90;;;;;;4589251;19;20467;-25
2023/08/08 00:56:57;;;;;;;3.38;1.80;;;16.20;99.90;;;;;;4590144;19;20014;-25
2023/08/08 00:58:30;;;;;;;5.78;2.15;;;16.20;99.90;;;;;;4591052;19;20073;-24
2023/08/08 01:00:04;;;;;;;4.20;2.20;;;16.20;99.90;;;;;;4589008;19;20034;-24
2023/08/08 01:01:36;;;;;;;4.28;2.63;;;16.20;99.90;;;;;;4589776;19;20019;-25
2023/08/08 01:03:08;;;;;;;5.65;2.00;;;16.20;99.90;;;;;;4589964;19;20003;-26
2023/08/08 01:04:41;;;;;;;4.07;2.00;;;16.20;99.90;;;;;;4590301;19;20371;-24
2023/08/08 01:06:56;;;;;;;5.07;2.17;;;16.20;99.90;;;;;;4590103;19;20014;-24
2023/08/08 01:08:32;;;;;;;5.32;2.33;;;16.20;99.90;;;;;;4589101;19;20368;-25
2023/08/08 01:10:09;;;;;;;5.15;2.22;;;16.20;99.90;;;;;;4589204;19;20006;-25
2023/08/08 01:11:42;;;;;;;4.82;2.20;;;16.10;99.90;;;;;;4589385;19;20522;-24
2023/08/08 01:13:20;;;;;;;5.45;2.38;;;16.20;99.90;;;;;;4586238;19;20017;-25
2023/08/08 01:14:52;;;;;;;4.00;1.73;;;16.10;99.90;;;;;;4588672;19;20018;-24
2023/08/08 01:16:24;;;;;;;5.35;2.15;;;16.10;99.90;;;;;;4589730;19;20010;-24
2023/08/08 01:17:56;;;;;;;3.60;1.95;;;16.10;99.90;;;;;;4590297;19;20007;-25
2023/08/08 01:19:28;;;;;;;5.45;1.95;;;16.10;99.90;;;;;;4589225;19;20023;-24
2023/08/08 01:21:01;;;;;;;4.68;2.15;;;16.10;99.90;;;;;;4588200;19;20011;-24
2023/08/08 01:22:39;;;;;;;5.50;2.33;;;16.00;99.90;;;;;;4588755;19;20014;-25
2023/08/08 01:24:22;;;;;;;4.32;2.47;;;16.00;99.90;;;;;;4590079;19;20010;-25
2023/08/08 01:25:55;;;;;;;3.65;2.22;;;16.10;99.90;;;;;;4588526;19;20015;-25
2023/08/08 01:27:27;;;;;;;4.72;1.92;;;16.00;99.90;;;;;;4588329;19;20011;-25
2023/08/08 01:28:58;;;;;;;5.28;2.33;;;16.00;99.90;;;;;;4587669;19;20015;-25
2023/08/08 01:30:32;;;;;;;4.78;2.10;;;16.00;99.90;;;;;;4589780;19;20011;-25
2023/08/08 01:32:04;;;;;;;4.78;2.13;;;16.00;99.90;;;;;;4589846;19;20015;-25
2023/08/08 01:33:37;;;;;;;4.78;2.20;;;16.00;99.90;;;;;;4589475;19;20070;-25
2023/08/08 01:35:08;;;;;;;4.13;2.28;;;16.00;99.90;;;;;;4589810;19;20006;-25
2023/08/08 01:36:47;;;;;;;4.07;2.38;;;16.00;99.90;;;;;;4588821;19;20003;-24
2023/08/08 01:38:27;;;;;;;5.03;2.30;;;16.00;99.90;;;;;;4588359;19;20373;-25
2023/08/08 01:39:59;;;;;;;5.22;2.13;;;16.00;99.90;;;;;;4588677;19;20474;-24
2023/08/08 01:41:32;;;;;;;4.00;2.03;;;16.00;99.90;;;;;;4589215;19;20014;-24
2023/08/08 01:43:04;;;;;;;4.65;2.50;;;16.00;99.90;;;;;;4593977;19;20538;-26
2023/08/08 01:44:36;;;;;;;3.90;2.10;;;16.00;99.90;;;;;;4593679;19;19999;-24
2023/08/08 01:46:08;;;;;;;5.50;2.10;;;16.00;99.90;;;;;;4592833;19;20070;-25
2023/08/08 01:47:39;;;;;;;4.80;2.35;;;15.90;99.90;;;;;;4593089;19;20414;-25
2023/08/08 01:49:12;;;;;;;4.93;2.20;;;15.90;99.90;;;;;;4592450;19;20011;-25
2023/08/08 01:50:45;;;;;;;3.70;1.70;;;16.00;99.90;;;;;;4592757;19;20011;-24
2023/08/08 01:52:16;;;;;;;6.07;2.60;;;15.90;99.90;;;;;;4591174;19;20021;-25
2023/08/08 01:53:48;;;;;;;5.10;2.20;;;16.00;99.90;;;;;;4593678;19;20015;-25
2023/08/08 01:55:19;;;;;;;4.22;2.05;;;15.90;99.90;;;;;;4594372;19;20095;-25
2023/08/08 01:56:51;;;;;;;5.60;2.60;;;16.00;99.90;;;;;;4594451;19;20018;-25
2023/08/08 01:58:23;;;;;;;3.47;2.10;;;15.90;99.90;;;;;;4593907;19;20058;-25
2023/08/08 01:59:58;;;;;;;4.90;2.20;;;16.00;99.90;;;;;;4593791;19;20015;-25
2023/08/08 02:01:30;;;;;;;10.65;3.30;;;16.00;99.90;;;;;;4594509;19;20451;-24
2023/08/08 02:53:38;;;;;;;2.75;1.60;;;15.80;99.90;;;;;;4585065;19;20566;-25
2023/08/08 02:55:10;;;;;;;3.10;1.40;;;15.90;99.90;;;;;;4592578;19;20018;-26
2023/08/08 02:56:41;;;;;;;;;;;15.90;99.90;;;;;;4592258;19;20014;-26
2023/08/08 02:58:12;;;;;;;4.90;1.70;;;15.80;99.90;;;;;;4592094;19;19919;-25
2023/08/08 02:59:43;;;;;;;4.93;2.20;;;15.80;99.90;;;;;;4592828;19;20011;-24
2023/08/08 03:01:15;;;;;;;2.80;1.48;;;15.80;99.90;;;;;;4593389;19;20344;-24
2023/08/08 03:02:46;;;;;;;5.10;2.25;;;15.80;99.90;;;;;;4592606;19;20013;-24
2023/08/08 03:04:18;;;;;;;3.95;1.88;;;15.70;99.90;;;;;;4593121;19;20031;-25
2023/08/08 03:05:49;;;;;;;3.40;1.75;;;15.70;99.90;;;;;;4593105;19;20014;-24
2023/08/08 03:07:20;;;;;;;3.95;1.95;;;15.70;99.90;;;;;;4592282;19;20074;-25
2023/08/08 03:08:52;;;;;;;3.50;1.85;;;15.70;99.90;;;;;;4591520;19;20018;-25
2023/08/08 03:10:25;;;;;;;5.00;2.30;;;15.70;99.90;;;;;;4592349;19;20019;-25
2023/08/08 03:11:56;;;;;;;2.60;1.58;;;15.70;99.90;;;;;;4592747;19;20332;-24
2023/08/08 03:13:29;;;;;;;3.70;1.52;;;15.70;99.90;;;;;;4592114;19;20035;-25
2023/08/08 03:15:02;;;;;;;3.67;1.95;;;15.70;99.90;;;;;;4592537;19;20014;-25
2023/08/08 03:16:33;;;;;;;5.15;2.15;;;15.70;99.90;;;;;;4592631;19;20486;-25
2023/08/08 04:01:15;;;;;;;3.10;1.58;;;15.90;99.90;;;;;;4590556;19;20463;-28
2023/08/08 04:02:47;;;;;;;3.55;1.73;;;15.90;99.90;;;;;;4590740;19;20015;-29
2023/08/08 04:04:20;;;;;;;3.28;1.42;;;15.90;99.90;;;;;;4591575;19;20475;-26
2023/08/08 04:05:52;;;;;;;3.67;1.92;;;15.90;99.90;;;;;;4591397;19;20463;-26
2023/08/08 04:07:25;;;;;;;3.97;1.98;;;15.90;99.90;;;;;;4589780;19;20052;-27
2023/08/08 04:08:58;;;;;;;3.75;1.83;;;15.90;99.90;;;;;;4590134;19;20353;-28
2023/08/08 04:10:29;;;;;;;3.78;1.70;;;15.90;99.90;;;;;;4591770;19;20009;-27
2023/08/08 04:12:02;;;;;;;4.15;1.73;;;15.90;99.90;;;;;;4591630;19;20019;-26
2023/08/08 04:13:34;;;;;;;6.95;1.92;;;15.90;99.90;;;;;;4591013;19;20030;-28
2023/08/08 04:15:07;;;;;;;4.55;2.08;;;15.90;99.90;;;;;;4591235;19;20006;-31
2023/08/08 04:16:39;;;;;;;3.72;1.88;;;16.00;99.90;;;;;;4591553;19;20002;-29
2023/08/08 04:18:10;;;;;;;3.20;1.70;;;16.00;99.90;;;;;;4590224;19;20471;-26
2023/08/08 04:19:43;;;;;;;4.22;1.92;;;16.00;99.90;;;;;;4590497;19;20014;-25
2023/08/08 04:21:15;;;;;;;3.72;1.80;;;16.00;99.90;;;;;;4591125;19;20011;-27
2023/08/08 04:22:46;;;;;;;3.92;1.98;;;16.00;99.90;;;;;;4591345;19;20022;-32
2023/08/08 04:24:17;;;;;;;5.72;2.05;;;16.00;99.90;;;;;;4591268;19;20020;-28
2023/08/08 04:25:48;;;;;;;4.20;1.90;;;16.00;99.90;;;;;;4592466;19;20014;-26
2023/08/08 04:27:19;;;;;;;3.83;2.00;;;16.00;99.90;;;;;;4591386;19;20047;-29
2023/08/08 04:28:52;;;;;;;3.53;2.13;;;16.00;99.90;;;;;;4590939;19;20003;-32
2023/08/08 04:30:24;;;;;;;4.28;2.10;;;16.00;99.90;;;;;;4590379;19;20421;-27
2023/08/08 04:32:14;;;;;;;3.65;2.00;;;16.00;99.90;;;;;;4590572;19;20022;-24
2023/08/08 04:33:46;;;;;;;3.53;1.88;;;16.00;99.90;;;;;;4590725;19;20584;-24
2023/08/08 04:35:17;;;;;;;3.20;1.80;;;16.00;99.90;;;;;;4591084;19;20476;-25
2023/08/08 04:36:49;;;;;;;3.22;1.73;;;16.00;99.90;;;;;;4589624;19;20017;-23
2023/08/08 04:38:21;;;;;;;3.60;1.67;;;16.10;99.90;;;;;;4590199;19;20006;-25
2023/08/08 04:39:52;;;;;;;5.97;2.33;;;16.10;99.90;;;;;;4589886;19;20010;-23
2023/08/08 04:41:24;;;;;;;3.38;1.80;;;16.10;99.90;;;;;;4590192;19;20023;-24
2023/08/08 04:42:55;;;;;;;3.15;1.92;;;16.10;99.90;;;;;;4590169;19;20044;-27
2023/08/08 04:44:26;;;;;;;3.67;1.77;;;16.10;99.90;;;;;;4589378;19;20010;-28
2023/08/08 04:45:58;;;;;;;2.65;1.75;;;16.10;99.90;;;;;;4590550;19;19998;-27
2023/08/08 04:47:29;;;;;;;3.85;1.95;;;16.10;99.90;;;;;;4591032;19;20010;-30
2023/08/08 04:49:01;;;;;;;5.15;2.05;;;16.20;99.90;;;;;;4589490;19;20014;-25
2023/08/08 07:19:46;;;;;;;2.92;1.63;;;16.90;99.90;;;;;;4528378;19;21115;-24
2023/08/08 07:21:17;;;;;;;3.58;1.77;;;17.00;99.90;;;;;;4589909;19;20017;-24
2023/08/08 07:22:51;;;;;;;2.80;1.55;;;17.00;99.90;;;;;;4590481;19;20070;-24
2023/08/08 07:24:26;;;;;;;2.13;1.40;;;17.00;99.90;;;;;;4590418;19;20010;-25
2023/08/08 07:25:57;;;;;;;2.58;1.38;;;17.10;99.90;;;;;;4591820;19;20036;-24
2023/08/08 07:27:29;;;;;;;3.28;1.60;;;17.10;99.90;;;;;;4589365;19;20015;-24
2023/08/08 07:29:00;;;;;;;3.97;1.42;;;17.10;99.90;;;;;;4589791;19;20014;-24
2023/08/08 07:30:31;;;;;;;2.92;1.65;;;17.10;99.90;;;;;;4591278;19;20007;-25
2023/08/08 07:32:05;;;;;;;3.88;1.70;;;17.10;99.90;;;;;;4591600;19;20035;-22
2023/08/08 07:33:40;;;;;;;4.03;1.77;;;17.20;99.90;;;;;;4590136;19;20048;-30
2023/08/08 07:35:15;;;;;;;4.30;1.55;;;17.20;99.90;;;;;;4591586;19;20022;-26
2023/08/08 07:36:48;;;;;;;4.22;1.75;;;17.20;99.90;;;;;;4592142;19;20028;-23
2023/08/08 07:38:20;;;;;;;3.42;1.60;;;17.20;99.90;;;;;;4590239;19;20463;-25
2023/08/08 07:39:51;;;;;;;2.83;1.70;;;17.20;99.90;;;;;;4588765;19;20061;-23
2023/08/08 07:41:24;;;;;;;3.72;1.70;;;17.20;99.90;;;;;;4591052;19;20009;-24
2023/08/08 07:42:57;;;;;;;3.40;1.40;;;17.20;99.90;;;;;;4591836;19;20010;-23
2023/08/08 07:44:31;;;;;;;2.47;1.40;;;17.20;99.90;;;;;;4590138;19;20024;-24
2023/08/08 07:46:02;;;;;;;3.58;1.63;;;17.20;99.90;;;;;;4590709;19;20018;-27
2023/08/08 07:47:33;;;;;;;3.28;1.55;;;17.20;99.90;;;;;;4592939;19;20010;-24
2023/08/08 07:49:06;;;;;;;2.30;1.40;;;17.20;99.90;;;;;;4589924;19;20077;-28
2023/08/08 07:50:38;;;;;;;3.38;2.00;;;17.20;99.90;;;;;;4590787;19;20332;-28
2023/08/08 07:52:09;;;;;;;2.83;1.60;;;17.30;99.90;;;;;;4590675;19;20078;-27
2023/08/08 07:53:41;;;;;;;2.95;1.85;;;17.30;99.90;;;;;;4590487;19;20026;-24
2023/08/08 07:55:12;;;;;;;3.70;1.67;;;17.30;99.90;;;;;;4590608;19;20007;-28
2023/08/08 07:56:43;;;;;;;3.33;1.63;;;17.40;99.90;;;;;;4589736;19;20011;-24
2023/08/08 07:58:15;;;;;;;2.83;1.40;;;17.50;99.90;;;;;;4590172;19;20015;-24
2023/08/08 07:59:46;;;;;;;4.78;1.70;;;17.50;99.90;;;;;;4590959;19;20093;-28
2023/08/08 08:01:18;;;;;;;5.35;1.60;;;17.50;99.90;;;;;;4589648;19;20034;-25
2023/08/08 08:02:52;;;;;;;2.78;1.52;;;17.50;99.90;;;;;;4590536;19;20339;-27
2023/08/08 08:04:23;;;;;;;4.57;1.60;;;17.50;99.90;;;;;;4588463;19;20011;-31
2023/08/08 08:05:56;;;;;;;2.28;1.23;;;17.40;99.90;;;;;;4590732;19;20007;-24
2023/08/08 08:07:31;;;;;;;3.15;1.60;;;17.50;99.90;;;;;;4589366;19;20018;-28
2023/08/08 08:09:03;;;;;;;2.53;1.33;;;17.40;99.90;;;;;;4589746;19;20030;-26
2023/08/08 08:10:35;;;;;;;2.95;1.40;;;17.40;99.90;;;;;;4589702;19;20010;-29
2023/08/08 08:12:06;;;;;;;;;;;17.40;99.90;;;;;;4591036;19;20006;-24
2023/08/08 08:13:37;;;;;;;2.50;1.40;;;17.50;99.90;;;;;;4590243;19;19918;-24
2023/08/08 08:15:10;;;;;;;2.50;1.30;;;17.40;99.90;;;;;;4589627;19;20006;-29
2023/08/08 08:16:41;;;;;;;2.83;1.63;;;17.40;99.90;;;;;;4590057;19;20007;-24
2023/08/08 08:18:13;;;;;;;3.03;1.80;;;17.40;99.90;;;;;;4590439;19;20015;-24
2023/08/08 08:19:47;;;;;;;3.33;1.58;;;17.40;99.90;;;;;;4590382;19;20018;-24
2023/08/08 08:21:20;;;;;;;2.55;1.40;;;17.40;99.90;;;;;;4587893;19;20011;-23
2023/08/08 08:22:52;;;;;;;2.42;1.50;;;17.40;99.90;;;;;;4589671;19;20379;-24
2023/08/08 08:24:23;;;;;;;3.72;1.73;;;17.40;99.90;;;;;;4589399;19;20011;-28
2023/08/08 08:25:55;;;;;;;;;;;17.40;99.90;;;;;;4594196;19;20023;-24
2023/08/08 08:27:26;;;;;;;3.10;1.50;;;17.50;99.90;;;;;;4590743;19;19978;-24
2023/08/08 08:28:58;;;;;;;4.40;2.47;;;17.50;99.90;;;;;;4593221;19;20011;-24
2023/08/08 08:30:30;;;;;;;3.22;1.63;;;17.50;99.90;;;;;;4590062;19;20018;-23
2023/08/08 08:32:01;;;;;;;2.17;1.38;;;17.50;99.90;;;;;;4589307;19;20047;-24
2023/08/08 08:33:32;;;;;;;2.80;1.73;;;17.50;99.90;;;;;;4589917;19;20455;-24
2023/08/08 08:35:06;;;;;;;3.97;1.67;;;17.50;99.90;;;;;;4589725;19;20034;-24
2023/08/08 08:36:37;;;;;;;3.08;1.70;;;17.60;99.90;;;;;;4588886;19;20021;-24
2023/08/08 08:38:08;;;;;;;4.05;1.83;;;17.60;99.90;;;;;;4589903;19;20014;-26
2023/08/08 08:39:40;;;;;;;2.75;1.50;;;17.60;99.90;;;;;;4590466;19;20014;-24
2023/08/08 08:41:12;;;;;;;3.70;1.95;;;17.60;99.90;;;;;;4590004;19;20006;-23
2023/08/08 08:42:43;;;;;;;1.92;1.30;;;17.60;99.90;;;;;;4588782;19;20006;-24
2023/08/08 08:44:17;;;;;;;3.03;1.85;;;17.70;99.90;;;;;;4588150;19;20014;-26
2023/08/08 08:45:53;;;;;;;3.33;1.58;;;17.70;99.90;;;;;;4591603;19;20348;-22
2023/08/08 08:47:25;;;;;;;2.75;1.70;;;17.70;99.90;;;;;;4590547;19;20010;-25
2023/08/08 08:48:56;;;;;;;2.70;1.55;;;17.70;99.90;;;;;;4588523;19;20040;-24
2023/08/08 08:50:27;;;;;;;2.15;1.38;;;17.70;99.90;;;;;;4589058;19;20011;-29
2023/08/08 08:52:04;;;;;;;3.45;1.80;;;17.70;99.90;;;;;;4589473;19;20018;-26
2023/08/08 08:53:39;;;;;;;1.92;1.20;;;17.70;99.90;;;;;;4589159;19;20014;-25
2023/08/08 08:55:10;;;;;;;4.00;1.60;;;17.80;99.90;;;;;;4589540;19;20009;-24
2023/08/08 08:56:41;;;;;;;3.10;1.83;;;17.80;99.90;;;;;;4588767;19;20006;-24
2023/08/08 08:58:18;;;;;;;2.92;1.80;;;17.80;99.90;;;;;;4589721;19;20073;-23
2023/08/08 08:59:50;;;;;;;2.70;1.50;;;17.80;99.90;;;;;;4589274;19;20469;-27
2023/08/08 09:01:22;;;;;;;3.03;1.92;;;17.90;99.90;;;;;;4588730;19;20028;-25
2023/08/08 09:02:55;;;;;;;3.42;1.75;;;17.90;99.90;;;;;;4589612;19;20037;-23
2023/08/08 09:04:28;;;;;;;2.40;1.80;;;17.90;99.90;;;;;;4589599;19;20002;-26
2023/08/08 09:05:59;;;;;;;2.28;1.30;;;17.90;99.90;;;;;;4590873;19;20014;-29
2023/08/08 09:07:31;;;;;;;2.72;1.58;;;17.90;99.90;;;;;;4588419;19;20479;-23
2023/08/08 09:09:03;;;;;;;3.47;1.27;;;17.90;99.90;;;;;;4588243;19;20006;-28
2023/08/08 09:10:35;;;;;;;3.13;1.60;;;17.90;99.90;;;;;;4590503;19;20006;-24
2023/08/08 09:12:07;;;;;;;2.70;1.45;;;17.90;99.90;;;;;;4589330;19;20086;-26
2023/08/08 09:13:38;;;;;;;2.83;1.42;;;17.80;99.90;;;;;;4588405;19;20027;-29
2023/08/08 09:15:10;;;;;;;2.30;1.52;;;17.90;99.90;;;;;;4589397;19;20018;-23
2023/08/08 09:16:42;;;;;;;2.63;1.50;;;17.90;99.90;;;;;;4590184;19;20025;-28
2023/08/08 09:18:14;;;;;;;2.45;1.33;;;17.80;99.90;;;;;;4589382;19;20070;-30
2023/08/08 09:19:46;;;;;;;3.47;1.63;;;17.80;99.90;;;;;;4589354;19;20037;-24
2023/08/08 09:21:18;;;;;;;4.18;1.75;;;17.80;99.90;;;;;;4588701;19;20412;-24
2023/08/08 09:22:51;;;;;;;3.25;1.50;;;17.70;99.90;;;;;;4590679;19;20007;-23
2023/08/08 09:24:22;;;;;;;2.22;1.40;;;17.70;99.90;;;;;;4587305;19;20066;-24
2023/08/08 09:25:53;;;;;;;3.58;1.42;;;17.70;99.90;;;;;;4591008;19;20356;-24
2023/08/08 09:27:24;;;;;;;3.05;1.83;;;17.70;99.90;;;;;;4590446;19;20021;-25
2023/08/08 09:28:56;;;;;;;2.63;1.60;;;17.60;99.90;;;;;;4588176;19;20574;-24
2023/08/08 09:30:27;;;;;;;3.40;1.65;;;17.70;99.90;;;;;;4588472;19;20015;-25
2023/08/08 09:31:58;;;;;;;3.67;1.67;;;17.70;99.90;;;;;;4588458;19;20019;-24
2023/08/08 09:33:32;;;;;;;3.28;1.90;;;17.70;99.90;;;;;;4588690;19;19998;-28
2023/08/08 09:35:09;;;;;;;3.22;1.67;;;17.70;99.90;;;;;;4588619;19;20018;-30
2023/08/08 09:36:40;;;;;;;3.53;1.80;;;17.70;99.90;;;;;;4589016;19;20090;-24
2023/08/08 09:38:11;;;;;;;5.72;1.90;;;17.70;99.90;;;;;;4588398;19;20010;-23
2023/08/08 09:39:44;;;;;;;3.25;1.60;;;17.70;99.90;;;;;;4589284;19;20061;-24
2023/08/08 09:41:15;;;;;;;3.30;1.40;;;17.70;99.90;;;;;;4587758;19;20033;-23
2023/08/08 09:42:46;;;;;;;3.35;2.05;;;17.70;99.90;;;;;;4588013;19;20066;-24
2023/08/08 09:44:17;;;;;;;3.65;1.63;;;17.70;99.90;;;;;;4587628;19;20011;-23
2023/08/08 09:45:49;;;;;;;3.17;1.45;;;17.70;99.90;;;;;;4590959;19;20475;-24
2023/08/08 09:47:21;;;;;;;2.63;1.45;;;17.70;99.90;;;;;;4588677;19;20018;-26
2023/08/08 09:48:53;;;;;;;3.10;2.03;;;17.80;99.90;;;;;;4587141;19;20015;-30
2023/08/08 09:50:24;;;;;;;2.50;1.65;;;17.80;99.90;;;;;;4588696;19;20567;-28
2023/08/08 09:51:55;;;;;;;2.97;1.50;;;17.80;99.90;;;;;;4588366;19;20356;-24
2023/08/08 09:53:27;;;;;;;2.05;1.17;;;17.90;99.90;;;;;;4588274;19;20381;-24
2023/08/08 09:54:58;;;;;;;;;;;17.90;99.90;;;;;;4588261;19;20032;-27
2023/08/08 09:56:29;;;;;;;3.08;1.52;;;18.00;99.90;;;;;;4588513;19;19914;-26
2023/08/08 09:58:05;;;;;;;3.03;1.45;;;18.00;99.90;;;;;;4587418;19;20069;-26
2023/08/08 09:59:37;;;;;;;3.15;1.40;;;18.10;99.90;;;;;;4587320;19;20335;-28
2023/08/08 10:01:08;;;;;;;2.15;1.40;;;18.10;99.90;;;;;;4588438;19;20019;-24
2023/08/08 10:02:40;;;;;;;2.00;1.30;;;18.10;99.90;;;;;;4590146;19;20011;-23
2023/08/08 10:04:12;;;;;;;3.90;1.63;;;18.10;99.90;;;;;;4592439;19;20018;-24
2023/08/08 10:05:44;;;;;;;8.73;4.35;;;18.10;99.90;;;;;;4593735;19;20014;-27
2023/08/08 10:07:15;;;;;;;;;;;18.10;99.90;;;;;;4593212;19;20368;-25
2023/08/08 10:08:46;;;;;;;2.10;1.40;;;18.10;99.90;;;;;;4593162;19;19986;-26
2023/08/08 10:10:18;;;;;;;3.85;1.95;;;18.10;99.90;;;;;;4592859;19;20019;-28
2023/08/08 10:11:50;;;;;;;3.38;1.52;;;18.10;99.90;;;;;;4591799;19;20109;-24
2023/08/08 10:13:26;;;;;;;3.35;1.73;;;18.10;99.90;;;;;;4592734;19;20011;-24
2023/08/08 10:14:58;;;;;;;3.13;1.40;;;18.10;99.90;;;;;;4592064;19;20010;-28
2023/08/08 10:16:32;;;;;;;3.45;1.77;;;18.10;99.90;;;;;;4591664;19;20010;-26
2023/08/08 10:18:04;;;;;;;2.80;1.42;;;18.10;99.90;;;;;;4592366;19;20026;-25
2023/08/08 10:19:36;;;;;;;3.20;1.60;;;18.10;99.90;;;;;;4593188;19;20337;-24
2023/08/08 10:21:09;;;;;;;3.50;1.30;;;18.10;99.90;;;;;;4590830;19;20030;-24
2023/08/08 10:22:46;;;;;;;2.78;1.65;;;18.10;99.90;;;;;;4591660;19;20018;-28
2023/08/08 10:24:20;;;;;;;3.70;1.60;;;18.20;99.90;;;;;;4590922;19;20353;-28
2023/08/08 10:25:52;;;;;;;2.70;1.52;;;18.20;99.90;;;;;;4593860;19;20356;-24
2023/08/08 10:27:42;;;;;;;2.17;1.17;;;18.20;99.90;;;;;;4591665;19;20015;-29
2023/08/08 10:29:17;;;;;;;2.75;1.45;;;18.10;99.90;;;;;;4593668;19;20014;-24
2023/08/08 10:31:01;;;;;;;2.00;1.10;;;18.10;99.90;;;;;;4591378;19;20397;-24
2023/08/08 10:32:43;;;;;;;2.45;1.45;;;18.20;99.90;;;;;;4591463;19;20074;-28
2023/08/08 10:34:14;;;;;;;3.40;1.30;;;18.30;99.90;;;;;;4591406;19;20517;-24
2023/08/08 10:35:57;;;;;;;2.53;1.48;;;18.30;99.90;;;;;;4594167;19;20019;-28
2023/08/08 10:37:28;;;;;;;3.40;1.65;;;18.30;99.90;;;;;;4591418;19;20079;-24
2023/08/08 10:38:59;;;;;;;3.13;1.55;;;18.30;99.90;;;;;;4592426;19;20027;-25
2023/08/08 10:40:33;;;;;;;3.88;1.58;;;18.30;99.90;;;;;;4591995;19;20002;-24
2023/08/08 10:42:04;;;;;;;2.10;1.40;;;18.30;99.90;;;;;;4592123;19;20018;-24
2023/08/08 10:43:35;;;;;;;3.63;2.05;;;18.30;99.90;;;;;;4591914;19;20014;-26
2023/08/08 10:45:09;;;;;;;5.15;2.08;;;18.30;99.90;;;;;;4591516;19;20021;-22
2023/08/08 10:46:41;;;;;;;2.78;1.20;;;18.30;99.90;;;;;;4592173;19;20006;-25
2023/08/08 10:48:12;;;;;;;;;;;18.20;99.90;;;;;;4592840;19;20010;-29
2023/08/08 10:49:44;;;;;;;2.45;1.25;;;18.20;99.90;;;;;;4590691;19;20113;-24
2023/08/08 10:51:15;;;;;;;2.00;1.50;;;18.20;99.90;;;;;;4591331;19;20110;-28
2023/08/08 10:52:52;;;;;;;1.83;1.10;;;18.20;99.90;;;;;;4591619;19;20385;-24
2023/08/08 10:54:30;;;;;;;3.42;1.52;;;18.20;99.90;;;;;;4590490;19;20038;-26
2023/08/08 10:56:03;;;;;;;2.25;1.30;;;18.20;99.90;;;;;;4593020;19;20360;-24
2023/08/08 10:57:34;;;;;;;3.50;1.20;;;18.10;99.90;;;;;;4591993;19;20014;-24
2023/08/08 10:59:17;;;;;;;2.72;1.85;;;18.20;99.90;;;;;;4592000;19;20007;-26
2023/08/08 11:00:48;;;;;;;3.33;1.20;;;18.10;99.90;;;;;;4591965;19;20007;-23
2023/08/08 11:02:19;;;;;;;1.70;1.15;;;18.20;99.90;;;;;;4590851;19;20036;-24
2023/08/08 11:03:52;;;;;;;2.22;1.15;;;18.20;99.90;;;;;;4591885;19;20019;-25
2023/08/08 11:05:25;;;;;;;2.97;1.40;;;18.20;99.90;;;;;;4592067;19;20011;-23
2023/08/08 11:06:58;;;;;;;3.90;1.30;;;18.20;99.90;;;;;;4591139;19;20065;-25
2023/08/08 11:08:32;;;;;;;3.30;1.42;;;18.30;99.90;;;;;;4590730;19;20019;-24
2023/08/08 11:10:06;;;;;;;3.28;1.27;;;18.40;99.90;;;;;;4590972;19;20007;-27
2023/08/08 11:11:39;;;;;;;2.92;1.30;;;18.40;99.90;;;;;;4591418;19;20016;-24
2023/08/08 11:13:10;;;;;;;3.80;1.45;;;18.40;99.90;;;;;;4591474;19;20014;-25
2023/08/08 11:14:41;;;;;;;2.25;1.30;;;18.50;99.90;;;;;;4589094;19;20359;-25
2023/08/08 11:16:14;;;;;;;3.50;1.70;;;18.50;99.90;;;;;;4592372;19;20014;-27
2023/08/08 11:17:46;;;;;;;2.10;1.38;;;18.60;99.90;;;;;;4591392;19;20019;-30
2023/08/08 11:19:19;;;;;;;3.88;1.52;;;18.60;99.90;;;;;;4591327;19;20015;-28
2023/08/08 11:20:50;;;;;;;1.85;1.15;;;18.70;99.90;;;;;;4590262;19;20482;-28
2023/08/08 11:22:22;;;;;;;3.53;1.33;;;18.70;99.90;;;;;;4591836;19;20083;-29
2023/08/08 11:23:55;;;;;;;1.67;1.30;;;18.60;99.90;;;;;;4591475;19;20443;-24
2023/08/08 11:25:27;;;;;;;2.10;1.30;;;18.70;99.90;;;;;;4590990;19;20094;-27
2023/08/08 11:26:58;;;;;;;2.05;1.13;;;18.60;99.90;;;;;;4591033;19;20043;-27
2023/08/08 11:28:31;;;;;;;1.77;1.08;;;18.70;99.90;;;;;;4592292;19;20354;-30
2023/08/08 11:30:05;;;;;;;2.47;1.42;;;18.70;99.90;;;;;;4591126;19;20006;-24
2023/08/08 11:31:37;;;;;;;2.97;1.45;;;18.70;99.90;;;;;;4590457;19;20022;-25
2023/08/08 11:33:09;;;;;;;3.20;1.30;;;18.70;99.90;;;;;;4591074;19;20010;-29
2023/08/08 11:34:40;;;;;;;;;;;18.70;99.90;;;;;;4591215;19;20074;-26
2023/08/08 11:36:13;;;;;;;1.80;1.15;;;18.70;99.90;;;;;;4592069;19;19923;-30
2023/08/08 11:37:49;;;;;;;1.75;0.98;;;18.70;99.90;;;;;;4590444;19;20041;-26
2023/08/08 11:39:20;;;;;;;2.38;1.25;;;18.60;99.90;;;;;;4590407;19;20017;-29
2023/08/08 11:40:55;;;;;;;2.53;1.13;;;18.60;99.90;;;;;;4590910;19;20093;-24
2023/08/08 11:42:28;;;;;;;2.83;1.10;;;18.60;99.90;;;;;;4591009;19;20010;-27
2023/08/08 11:43:59;;;;;;;4.50;1.27;;;18.60;99.90;;;;;;4590110;19;20007;-24
2023/08/08 11:45:31;;;;;;;5.32;1.27;;;18.60;99.90;;;;;;4590453;19;20051;-24
2023/08/08 11:47:03;;;;;;;2.50;1.20;;;18.60;99.90;;;;;;4590600;19;20022;-25
2023/08/08 11:48:35;;;;;;;1.92;1.20;;;18.60;99.90;;;;;;4589951;19;20084;-28
2023/08/08 11:50:09;;;;;;;2.10;1.00;;;18.60;99.90;;;;;;4590185;19;20022;-24
2023/08/08 11:51:42;;;;;;;1.75;0.80;;;18.60;99.90;;;;;;4590975;19;20018;-24
2023/08/08 11:53:13;;;;;;;2.30;0.88;;;18.60;99.90;;;;;;4589383;19;20074;-30
2023/08/08 11:54:57;;;;;;;2.92;0.98;;;18.60;99.90;;;;;;4588852;19;20023;-23
2023/08/08 11:56:29;;;;;;;2.17;1.30;;;18.60;99.90;;;;;;4588603;19;20408;-26
2023/08/08 11:58:00;;;;;;;1.92;0.95;;;18.60;99.90;;;;;;4588794;19;20014;-24
2023/08/08 11:59:31;;;;;;;1.80;1.00;;;18.60;99.90;;;;;;4589283;19;20022;-24
2023/08/08 12:01:02;;;;;;;2.58;1.00;;;18.50;99.90;;;;;;4588734;19;20034;-24
2023/08/08 12:02:34;;;;;;;1.70;0.98;;;18.50;99.90;;;;;;4588644;19;20006;-24
2023/08/08 12:04:08;;;;;;;2.75;1.35;;;18.50;99.90;;;;;;4589232;19;20010;-24
2023/08/08 12:13:39;;;;;;;2.15;1.00;;;18.60;99.90;;;;;;4591186;19;20412;-28
2023/08/08 12:23:09;;;;;;;3.97;3.58;;;18.70;99.90;;;;;;4583431;19;20006;-27
2023/08/08 12:26:48;;;;;;;4.28;2.35;;;18.70;99.90;;;;;;4588432;19;20037;-27
2023/08/08 12:28:20;;;;;;;2.08;1.48;;;18.80;99.90;;;;;;4589366;19;20010;-24
2023/08/08 12:29:52;;;;;;;;;;;18.90;99.90;;;;;;4590394;19;20019;-29
2023/08/08 12:31:25;;;;;;;1.65;1.10;;;18.90;99.90;;;;;;4591062;19;20248;-24
2023/08/08 12:39:10;;;;;;;1.77;0.95;;;19.10;99.90;;;;;;4589322;19;19979;-24
2023/08/08 12:45:41;;;;;;;2.42;1.05;;;19.10;99.90;;;;;;4590130;19;20019;-24
2023/08/08 12:52:38;;;;;;;2.40;1.20;;;19.00;99.90;;;;;;4590031;19;19982;-24
2023/08/08 13:04:51;;;;;;;3.30;1.10;;;19.00;99.90;;;;;;4589553;19;19999;-24
2023/08/08 13:06:22;;;;;;;1.50;1.25;;;19.00;99.90;;;;;;4590280;19;20386;-28
2023/08/08 13:08:13;;;;;;;1.95;1.02;;;19.00;99.90;;;;;;4588593;19;20100;-21
2023/08/08 13:09:52;;;;;;;4.05;1.23;;;18.90;99.90;;;;;;4587318;19;20011;-25
2023/08/08 13:11:26;;;;;;;1.75;1.02;;;18.90;99.90;;;;;;4589347;19;20022;-24
2023/08/08 13:12:59;;;;;;;2.65;1.40;;;18.90;99.90;;;;;;4589081;19;20495;-29
2023/08/08 13:14:33;;;;;;;3.60;1.95;;;18.70;99.90;;;;;;4589824;19;20456;-26
2023/08/08 13:16:04;;;;;;;3.50;2.03;;;18.60;99.90;;;;;;4589818;19;20015;-28
2023/08/08 13:17:36;;;;;;;3.28;1.27;;;18.30;99.90;;;;;;4590095;19;20006;-24
2023/08/08 13:19:07;;;;;;;;;;;18.00;99.90;;;;;;4589828;19;20023;-24
2023/08/08 13:20:40;;;;;;;1.90;1.20;;;17.70;99.90;;;;;;4588832;19;19945;-27
2023/08/08 13:22:12;;;;;;;2.75;1.48;;;17.60;99.90;;;;;;4587960;19;20017;-25
2023/08/08 13:47:15;;;;;;;1.55;0.82;;;18.40;99.90;;;;;;4593258;19;20003;-24
2023/08/08 13:48:48;;;;;;;;;;;18.50;99.90;;;;;;4593209;19;20010;-23
2023/08/08 13:50:19;;;;;;;;;;;18.60;99.90;;;;;;4594671;19;19949;-24
2023/08/08 13:51:50;;;;;;;2.15;1.05;;;18.60;99.90;;;;;;4594658;19;19926;-24
2023/08/08 13:53:21;;;;;;;2.53;0.93;;;18.60;99.90;;;;;;4592636;19;20041;-26
2023/08/08 13:54:55;;;;;;;1.17;0.80;;;18.70;99.90;;;;;;4592996;19;20348;-28
2023/08/08 13:56:26;;;;;;;1.73;1.20;;;18.70;99.90;;;;;;4593746;19;20005;-23
2023/08/08 13:57:58;;;;;;;3.78;1.20;;;18.70;99.90;;;;;;4592450;19;20043;-23
2023/08/08 13:59:29;;;;;;;3.58;1.63;;;18.80;99.90;;;;;;4592467;19;20074;-27
2023/08/08 14:01:00;;;;;;;2.15;1.08;;;18.80;99.90;;;;;;4592317;19;20033;-23
2023/08/08 14:02:34;;;;;;;;;;;18.80;99.90;;;;;;4594604;19;20002;-28
2023/08/08 14:04:06;;;;;;;1.58;1.05;;;18.90;99.90;;;;;;4592615;19;19938;-24